sensor_id;sensor_type;location;lat;lon;timestamp;P1;durP1;ratioP1;P2;durP2;ratioP2
54263;SDS011;40178;53.042;6.406;2023-11-19T00:01:40;55.70;;;19.15;;
54263;SDS011;40178;53.042;6.406;2023-11-19T00:04:05;47.83;;;17.85;;
54263;SDS011;40178;53.042;6.406;2023-11-19T00:06:31;56.50;;;20.92;;
54263;SDS011;40178;53.042;6.406;2023-11-19T00:08:56;45.50;;;17.52;;
54263;SDS011;40178;53.042;6.406;2023-11-19T00:11:22;47.70;;;15.90;;
54263;SDS011;40178;53.042;6.406;2023-11-19T00:13:48;40.60;;;16.17;;
54263;SDS011;40178;53.042;6.406;2023-11-19T00:16:13;44.08;;;13.85;;
54263;SDS011;40178;53.042;6.406;2023-11-19T00:18:39;51.80;;;16.88;;
54263;SDS011;40178;53.042;6.406;2023-11-19T00:21:05;39.75;;;14.25;;
54263;SDS011;40178;53.042;6.406;2023-11-19T00:23:31;37.85;;;13.63;;
54263;SDS011;40178;53.042;6.406;2023-11-19T00:25:57;42.97;;;13.27;;
54263;SDS011;40178;53.042;6.406;2023-11-19T00:28:23;39.35;;;12.40;;
54263;SDS011;40178;53.042;6.406;2023-11-19T00:30:49;34.58;;;11.23;;
54263;SDS011;40178;53.042;6.406;2023-11-19T00:33:14;38.42;;;12.05;;
54263;SDS011;40178;53.042;6.406;2023-11-19T00:35:40;33.80;;;11.27;;
54263;SDS011;40178;53.042;6.406;2023-11-19T00:38:05;31.85;;;11.05;;
54263;SDS011;40178;53.042;6.406;2023-11-19T00:40:32;33.15;;;9.43;;
54263;SDS011;40178;53.042;6.406;2023-11-19T00:42:57;32.30;;;9.75;;
54263;SDS011;40178;53.042;6.406;2023-11-19T00:45:23;33.45;;;8.45;;
54263;SDS011;40178;53.042;6.406;2023-11-19T00:47:48;28.60;;;9.15;;
54263;SDS011;40178;53.042;6.406;2023-11-19T00:50:14;35.42;;;8.85;;
54263;SDS011;40178;53.042;6.406;2023-11-19T00:52:40;31.02;;;8.02;;
54263;SDS011;40178;53.042;6.406;2023-11-19T00:55:06;24.90;;;7.75;;
54263;SDS011;40178;53.042;6.406;2023-11-19T00:57:32;26.98;;;6.80;;
54263;SDS011;40178;53.042;6.406;2023-11-19T00:59:58;35.53;;;7.40;;
54263;SDS011;40178;53.042;6.406;2023-11-19T01:02:24;33.95;;;7.13;;
54263;SDS011;40178;53.042;6.406;2023-11-19T01:04:50;32.58;;;7.43;;
54263;SDS011;40178;53.042;6.406;2023-11-19T01:07:16;31.15;;;6.88;;
54263;SDS011;40178;53.042;6.406;2023-11-19T01:09:42;26.45;;;6.43;;
54263;SDS011;40178;53.042;6.406;2023-11-19T01:12:07;32.40;;;6.95;;
54263;SDS011;40178;53.042;6.406;2023-11-19T01:14:35;27.88;;;6.30;;
54263;SDS011;40178;53.042;6.406;2023-11-19T01:17:01;33.03;;;6.97;;
54263;SDS011;40178;53.042;6.406;2023-11-19T01:19:26;38.40;;;7.80;;
54263;SDS011;40178;53.042;6.406;2023-11-19T01:21:53;28.63;;;6.28;;
54263;SDS011;40178;53.042;6.406;2023-11-19T01:24:19;28.33;;;6.18;;
54263;SDS011;40178;53.042;6.406;2023-11-19T01:26:45;28.65;;;6.95;;
54263;SDS011;40178;53.042;6.406;2023-11-19T01:29:12;32.75;;;6.43;;
54263;SDS011;40178;53.042;6.406;2023-11-19T01:31:41;29.48;;;6.10;;
54263;SDS011;40178;53.042;6.406;2023-11-19T01:34:07;36.63;;;7.55;;
54263;SDS011;40178;53.042;6.406;2023-11-19T01:36:33;37.15;;;8.05;;
54263;SDS011;40178;53.042;6.406;2023-11-19T01:38:59;38.78;;;7.00;;
54263;SDS011;40178;53.042;6.406;2023-11-19T01:41:24;25.70;;;6.07;;
54263;SDS011;40178;53.042;6.406;2023-11-19T01:43:50;29.70;;;5.95;;
54263;SDS011;40178;53.042;6.406;2023-11-19T01:46:15;29.35;;;6.47;;
54263;SDS011;40178;53.042;6.406;2023-11-19T01:48:45;30.95;;;6.25;;
54263;SDS011;40178;53.042;6.406;2023-11-19T01:51:15;26.95;;;5.72;;
54263;SDS011;40178;53.042;6.406;2023-11-19T01:53:41;30.20;;;6.38;;
54263;SDS011;40178;53.042;6.406;2023-11-19T01:56:08;29.15;;;6.25;;
54263;SDS011;40178;53.042;6.406;2023-11-19T01:58:36;24.92;;;6.18;;
54263;SDS011;40178;53.042;6.406;2023-11-19T02:01:04;28.35;;;6.88;;
54263;SDS011;40178;53.042;6.406;2023-11-19T02:03:33;27.17;;;6.20;;
54263;SDS011;40178;53.042;6.406;2023-11-19T02:05:59;31.10;;;7.05;;
54263;SDS011;40178;53.042;6.406;2023-11-19T02:08:25;25.55;;;6.50;;
54263;SDS011;40178;53.042;6.406;2023-11-19T02:10:51;23.80;;;5.78;;
54263;SDS011;40178;53.042;6.406;2023-11-19T02:13:20;30.27;;;6.05;;
54263;SDS011;40178;53.042;6.406;2023-11-19T02:15:46;24.05;;;5.63;;
54263;SDS011;40178;53.042;6.406;2023-11-19T02:20:53;26.00;;;7.45;;
54263;SDS011;40178;53.042;6.406;2023-11-19T02:23:19;25.50;;;7.15;;
54263;SDS011;40178;53.042;6.406;2023-11-19T02:26:28;31.15;;;6.72;;
54263;SDS011;40178;53.042;6.406;2023-11-19T02:28:35;23.75;;;6.30;;
54263;SDS011;40178;53.042;6.406;2023-11-19T02:31:01;28.92;;;6.13;;
54263;SDS011;40178;53.042;6.406;2023-11-19T02:33:29;26.65;;;5.53;;
54263;SDS011;40178;53.042;6.406;2023-11-19T02:35:55;26.65;;;6.43;;
54263;SDS011;40178;53.042;6.406;2023-11-19T02:38:21;33.78;;;5.90;;
54263;SDS011;40178;53.042;6.406;2023-11-19T02:40:47;25.58;;;5.65;;
54263;SDS011;40178;53.042;6.406;2023-11-19T02:43:14;31.77;;;5.93;;
54263;SDS011;40178;53.042;6.406;2023-11-19T02:45:40;28.10;;;6.93;;
54263;SDS011;40178;53.042;6.406;2023-11-19T02:48:05;41.65;;;7.38;;
54263;SDS011;40178;53.042;6.406;2023-11-19T02:50:31;29.15;;;6.40;;
54263;SDS011;40178;53.042;6.406;2023-11-19T02:52:57;26.73;;;6.65;;
54263;SDS011;40178;53.042;6.406;2023-11-19T02:55:23;38.10;;;6.63;;
54263;SDS011;40178;53.042;6.406;2023-11-19T02:57:50;32.60;;;6.82;;
54263;SDS011;40178;53.042;6.406;2023-11-19T03:00:21;30.85;;;5.90;;
54263;SDS011;40178;53.042;6.406;2023-11-19T03:02:49;32.85;;;8.77;;
54263;SDS011;40178;53.042;6.406;2023-11-19T03:05:25;24.25;;;6.30;;
54263;SDS011;40178;53.042;6.406;2023-11-19T03:07:52;23.55;;;5.00;;
54263;SDS011;40178;53.042;6.406;2023-11-19T03:10:17;31.40;;;6.65;;
54263;SDS011;40178;53.042;6.406;2023-11-19T03:12:44;24.38;;;5.57;;
54263;SDS011;40178;53.042;6.406;2023-11-19T03:15:10;30.50;;;5.85;;
54263;SDS011;40178;53.042;6.406;2023-11-19T03:17:39;26.52;;;5.82;;
54263;SDS011;40178;53.042;6.406;2023-11-19T03:20:07;22.65;;;5.80;;
54263;SDS011;40178;53.042;6.406;2023-11-19T03:22:40;25.45;;;5.80;;
54263;SDS011;40178;53.042;6.406;2023-11-19T03:25:09;24.95;;;6.10;;
54263;SDS011;40178;53.042;6.406;2023-11-19T03:27:35;26.63;;;5.78;;
54263;SDS011;40178;53.042;6.406;2023-11-19T03:30:02;29.08;;;6.82;;
54263;SDS011;40178;53.042;6.406;2023-11-19T03:32:30;26.60;;;5.63;;
54263;SDS011;40178;53.042;6.406;2023-11-19T03:34:57;25.10;;;5.28;;
54263;SDS011;40178;53.042;6.406;2023-11-19T03:37:23;24.48;;;5.93;;
54263;SDS011;40178;53.042;6.406;2023-11-19T03:39:49;26.20;;;6.18;;
54263;SDS011;40178;53.042;6.406;2023-11-19T03:42:14;34.05;;;5.72;;
54263;SDS011;40178;53.042;6.406;2023-11-19T03:44:40;29.27;;;6.25;;
54263;SDS011;40178;53.042;6.406;2023-11-19T03:47:05;23.48;;;5.55;;
54263;SDS011;40178;53.042;6.406;2023-11-19T03:49:31;28.83;;;6.00;;
54263;SDS011;40178;53.042;6.406;2023-11-19T03:51:57;29.73;;;6.18;;
54263;SDS011;40178;53.042;6.406;2023-11-19T03:54:23;26.45;;;6.53;;
54263;SDS011;40178;53.042;6.406;2023-11-19T03:56:48;32.20;;;6.72;;
54263;SDS011;40178;53.042;6.406;2023-11-19T03:59:14;27.25;;;5.95;;
54263;SDS011;40178;53.042;6.406;2023-11-19T04:01:40;24.88;;;5.72;;
54263;SDS011;40178;53.042;6.406;2023-11-19T04:04:06;33.67;;;6.90;;
54263;SDS011;40178;53.042;6.406;2023-11-19T04:06:32;18.52;;;4.95;;
54263;SDS011;40178;53.042;6.406;2023-11-19T04:08:57;32.28;;;7.18;;
54263;SDS011;40178;53.042;6.406;2023-11-19T04:11:23;37.47;;;6.75;;
54263;SDS011;40178;53.042;6.406;2023-11-19T04:13:49;26.65;;;6.68;;
54263;SDS011;40178;53.042;6.406;2023-11-19T04:16:14;30.33;;;6.88;;
54263;SDS011;40178;53.042;6.406;2023-11-19T04:18:40;23.70;;;6.32;;
54263;SDS011;40178;53.042;6.406;2023-11-19T04:21:06;28.63;;;6.22;;
54263;SDS011;40178;53.042;6.406;2023-11-19T04:23:32;34.13;;;7.00;;
54263;SDS011;40178;53.042;6.406;2023-11-19T04:25:58;32.80;;;6.90;;
54263;SDS011;40178;53.042;6.406;2023-11-19T04:28:26;32.30;;;6.78;;
54263;SDS011;40178;53.042;6.406;2023-11-19T04:30:52;30.75;;;6.20;;
54263;SDS011;40178;53.042;6.406;2023-11-19T04:33:18;21.13;;;5.63;;
54263;SDS011;40178;53.042;6.406;2023-11-19T04:35:43;28.13;;;5.35;;
54263;SDS011;40178;53.042;6.406;2023-11-19T04:38:09;38.22;;;6.32;;
54263;SDS011;40178;53.042;6.406;2023-11-19T04:40:35;26.55;;;6.95;;
54263;SDS011;40178;53.042;6.406;2023-11-19T04:43:01;23.60;;;6.40;;
54263;SDS011;40178;53.042;6.406;2023-11-19T04:45:26;23.10;;;5.60;;
54263;SDS011;40178;53.042;6.406;2023-11-19T04:47:52;32.85;;;7.47;;
54263;SDS011;40178;53.042;6.406;2023-11-19T04:50:17;27.63;;;6.28;;
54263;SDS011;40178;53.042;6.406;2023-11-19T04:52:43;27.58;;;5.80;;
54263;SDS011;40178;53.042;6.406;2023-11-19T04:55:10;36.70;;;6.55;;
54263;SDS011;40178;53.042;6.406;2023-11-19T04:57:37;33.92;;;6.55;;
54263;SDS011;40178;53.042;6.406;2023-11-19T05:00:03;30.10;;;6.13;;
54263;SDS011;40178;53.042;6.406;2023-11-19T05:02:30;28.60;;;6.75;;
54263;SDS011;40178;53.042;6.406;2023-11-19T05:04:55;23.52;;;5.60;;
54263;SDS011;40178;53.042;6.406;2023-11-19T05:07:21;35.47;;;6.45;;
54263;SDS011;40178;53.042;6.406;2023-11-19T05:09:47;29.05;;;5.60;;
54263;SDS011;40178;53.042;6.406;2023-11-19T05:12:13;35.90;;;6.20;;
54263;SDS011;40178;53.042;6.406;2023-11-19T05:14:38;33.63;;;6.53;;
54263;SDS011;40178;53.042;6.406;2023-11-19T05:17:04;29.50;;;6.55;;
54263;SDS011;40178;53.042;6.406;2023-11-19T05:19:29;27.55;;;5.97;;
54263;SDS011;40178;53.042;6.406;2023-11-19T05:21:55;26.33;;;6.05;;
54263;SDS011;40178;53.042;6.406;2023-11-19T05:24:21;30.20;;;5.93;;
54263;SDS011;40178;53.042;6.406;2023-11-19T05:26:46;26.50;;;5.55;;
54263;SDS011;40178;53.042;6.406;2023-11-19T05:29:12;31.27;;;6.32;;
54263;SDS011;40178;53.042;6.406;2023-11-19T05:31:38;35.03;;;6.28;;
54263;SDS011;40178;53.042;6.406;2023-11-19T05:34:03;27.83;;;5.57;;
54263;SDS011;40178;53.042;6.406;2023-11-19T05:36:29;25.50;;;5.63;;
54263;SDS011;40178;53.042;6.406;2023-11-19T05:38:55;26.02;;;5.82;;
54263;SDS011;40178;53.042;6.406;2023-11-19T05:41:21;32.67;;;6.35;;
54263;SDS011;40178;53.042;6.406;2023-11-19T05:43:46;25.10;;;5.10;;
54263;SDS011;40178;53.042;6.406;2023-11-19T05:46:12;24.80;;;4.97;;
54263;SDS011;40178;53.042;6.406;2023-11-19T05:48:38;28.10;;;5.65;;
54263;SDS011;40178;53.042;6.406;2023-11-19T05:51:04;18.30;;;5.25;;
54263;SDS011;40178;53.042;6.406;2023-11-19T05:53:30;30.05;;;5.80;;
54263;SDS011;40178;53.042;6.406;2023-11-19T05:55:56;27.10;;;5.43;;
54263;SDS011;40178;53.042;6.406;2023-11-19T05:58:26;30.02;;;5.97;;
54263;SDS011;40178;53.042;6.406;2023-11-19T06:00:57;24.20;;;5.38;;
54263;SDS011;40178;53.042;6.406;2023-11-19T06:03:26;25.27;;;6.22;;
54263;SDS011;40178;53.042;6.406;2023-11-19T06:05:51;23.50;;;5.03;;
54263;SDS011;40178;53.042;6.406;2023-11-19T06:08:17;31.80;;;5.78;;
54263;SDS011;40178;53.042;6.406;2023-11-19T06:10:43;31.15;;;4.97;;
54263;SDS011;40178;53.042;6.406;2023-11-19T06:13:11;23.58;;;4.85;;
54263;SDS011;40178;53.042;6.406;2023-11-19T06:15:41;28.52;;;5.78;;
54263;SDS011;40178;53.042;6.406;2023-11-19T06:18:07;25.60;;;6.15;;
54263;SDS011;40178;53.042;6.406;2023-11-19T06:20:33;31.15;;;5.78;;
54263;SDS011;40178;53.042;6.406;2023-11-19T06:23:00;24.90;;;5.88;;
54263;SDS011;40178;53.042;6.406;2023-11-19T06:25:26;32.10;;;6.28;;
54263;SDS011;40178;53.042;6.406;2023-11-19T06:27:51;24.15;;;4.65;;
54263;SDS011;40178;53.042;6.406;2023-11-19T06:30:18;30.77;;;5.80;;
54263;SDS011;40178;53.042;6.406;2023-11-19T06:32:44;24.08;;;5.75;;
54263;SDS011;40178;53.042;6.406;2023-11-19T06:35:09;24.80;;;6.00;;
54263;SDS011;40178;53.042;6.406;2023-11-19T06:37:35;25.13;;;4.72;;
54263;SDS011;40178;53.042;6.406;2023-11-19T06:40:03;29.10;;;5.97;;
54263;SDS011;40178;53.042;6.406;2023-11-19T06:42:30;22.08;;;5.18;;
54263;SDS011;40178;53.042;6.406;2023-11-19T06:44:56;23.60;;;5.63;;
54263;SDS011;40178;53.042;6.406;2023-11-19T06:47:25;22.23;;;4.72;;
54263;SDS011;40178;53.042;6.406;2023-11-19T06:49:52;26.40;;;4.82;;
54263;SDS011;40178;53.042;6.406;2023-11-19T06:52:18;21.77;;;5.15;;
54263;SDS011;40178;53.042;6.406;2023-11-19T06:54:44;24.08;;;5.20;;
54263;SDS011;40178;53.042;6.406;2023-11-19T06:57:10;27.15;;;5.32;;
54263;SDS011;40178;53.042;6.406;2023-11-19T06:59:36;24.23;;;4.35;;
54263;SDS011;40178;53.042;6.406;2023-11-19T07:02:02;26.10;;;5.25;;
54263;SDS011;40178;53.042;6.406;2023-11-19T07:04:29;27.00;;;5.10;;
54263;SDS011;40178;53.042;6.406;2023-11-19T07:06:55;21.58;;;4.18;;
54263;SDS011;40178;53.042;6.406;2023-11-19T07:09:21;29.33;;;5.25;;
54263;SDS011;40178;53.042;6.406;2023-11-19T07:11:48;26.63;;;5.45;;
54263;SDS011;40178;53.042;6.406;2023-11-19T07:14:16;27.02;;;6.03;;
54263;SDS011;40178;53.042;6.406;2023-11-19T07:16:43;31.77;;;5.35;;
54263;SDS011;40178;53.042;6.406;2023-11-19T07:19:09;33.28;;;4.93;;
54263;SDS011;40178;53.042;6.406;2023-11-19T07:21:34;25.77;;;4.68;;
54263;SDS011;40178;53.042;6.406;2023-11-19T07:24:04;23.00;;;5.25;;
54263;SDS011;40178;53.042;6.406;2023-11-19T07:26:30;30.05;;;5.00;;
54263;SDS011;40178;53.042;6.406;2023-11-19T07:28:56;20.90;;;4.55;;
54263;SDS011;40178;53.042;6.406;2023-11-19T07:31:23;23.33;;;5.10;;
54263;SDS011;40178;53.042;6.406;2023-11-19T07:33:49;22.42;;;4.13;;
54263;SDS011;40178;53.042;6.406;2023-11-19T07:36:15;27.63;;;5.97;;
54263;SDS011;40178;53.042;6.406;2023-11-19T07:38:41;22.85;;;3.90;;
54263;SDS011;40178;53.042;6.406;2023-11-19T07:41:07;25.55;;;4.63;;
54263;SDS011;40178;53.042;6.406;2023-11-19T07:43:39;24.17;;;5.10;;
54263;SDS011;40178;53.042;6.406;2023-11-19T07:46:05;28.20;;;5.07;;
54263;SDS011;40178;53.042;6.406;2023-11-19T07:48:39;26.80;;;5.10;;
54263;SDS011;40178;53.042;6.406;2023-11-19T07:51:05;22.88;;;5.03;;
54263;SDS011;40178;53.042;6.406;2023-11-19T07:53:31;29.13;;;5.15;;
54263;SDS011;40178;53.042;6.406;2023-11-19T07:55:57;29.85;;;4.97;;
54263;SDS011;40178;53.042;6.406;2023-11-19T07:58:24;24.08;;;5.53;;
54263;SDS011;40178;53.042;6.406;2023-11-19T08:00:50;23.52;;;5.35;;
54263;SDS011;40178;53.042;6.406;2023-11-19T08:03:17;28.08;;;4.97;;
54263;SDS011;40178;53.042;6.406;2023-11-19T08:05:44;23.70;;;4.72;;
54263;SDS011;40178;53.042;6.406;2023-11-19T08:08:10;19.33;;;3.88;;
54263;SDS011;40178;53.042;6.406;2023-11-19T08:10:35;24.30;;;5.65;;
54263;SDS011;40178;53.042;6.406;2023-11-19T08:13:01;23.52;;;4.75;;
54263;SDS011;40178;53.042;6.406;2023-11-19T08:15:27;25.00;;;4.93;;
54263;SDS011;40178;53.042;6.406;2023-11-19T08:17:52;21.20;;;4.25;;
54263;SDS011;40178;53.042;6.406;2023-11-19T08:20:18;28.67;;;6.10;;
54263;SDS011;40178;53.042;6.406;2023-11-19T08:22:44;24.98;;;4.63;;
54263;SDS011;40178;53.042;6.406;2023-11-19T08:25:09;22.65;;;5.00;;
54263;SDS011;40178;53.042;6.406;2023-11-19T08:27:35;25.38;;;5.38;;
54263;SDS011;40178;53.042;6.406;2023-11-19T08:30:01;34.50;;;5.93;;
54263;SDS011;40178;53.042;6.406;2023-11-19T08:32:26;21.60;;;4.18;;
54263;SDS011;40178;53.042;6.406;2023-11-19T08:34:52;22.35;;;5.95;;
54263;SDS011;40178;53.042;6.406;2023-11-19T08:37:19;24.48;;;4.82;;
54263;SDS011;40178;53.042;6.406;2023-11-19T08:39:49;27.65;;;4.45;;
54263;SDS011;40178;53.042;6.406;2023-11-19T08:42:18;45.22;;;6.13;;
54263;SDS011;40178;53.042;6.406;2023-11-19T08:44:44;19.40;;;4.60;;
54263;SDS011;40178;53.042;6.406;2023-11-19T08:47:15;20.95;;;4.93;;
54263;SDS011;40178;53.042;6.406;2023-11-19T08:49:43;23.42;;;5.47;;
54263;SDS011;40178;53.042;6.406;2023-11-19T08:52:09;30.83;;;4.53;;
54263;SDS011;40178;53.042;6.406;2023-11-19T08:54:35;30.27;;;4.85;;
54263;SDS011;40178;53.042;6.406;2023-11-19T08:57:01;29.23;;;5.78;;
54263;SDS011;40178;53.042;6.406;2023-11-19T08:59:28;21.90;;;4.93;;
54263;SDS011;40178;53.042;6.406;2023-11-19T09:01:56;25.33;;;5.07;;
54263;SDS011;40178;53.042;6.406;2023-11-19T09:04:22;27.73;;;5.15;;
54263;SDS011;40178;53.042;6.406;2023-11-19T09:06:48;28.33;;;5.40;;
54263;SDS011;40178;53.042;6.406;2023-11-19T09:09:14;21.48;;;5.22;;
54263;SDS011;40178;53.042;6.406;2023-11-19T09:11:40;22.17;;;4.70;;
54263;SDS011;40178;53.042;6.406;2023-11-19T09:14:05;26.92;;;5.50;;
54263;SDS011;40178;53.042;6.406;2023-11-19T09:16:31;36.28;;;5.30;;
54263;SDS011;40178;53.042;6.406;2023-11-19T09:18:57;27.05;;;4.63;;
54263;SDS011;40178;53.042;6.406;2023-11-19T09:21:24;25.67;;;5.45;;
54263;SDS011;40178;53.042;6.406;2023-11-19T09:23:50;25.67;;;5.50;;
54263;SDS011;40178;53.042;6.406;2023-11-19T09:26:16;21.23;;;4.43;;
54263;SDS011;40178;53.042;6.406;2023-11-19T09:28:41;28.55;;;5.32;;
54263;SDS011;40178;53.042;6.406;2023-11-19T09:31:13;27.73;;;5.95;;
54263;SDS011;40178;53.042;6.406;2023-11-19T09:33:39;18.40;;;4.93;;
54263;SDS011;40178;53.042;6.406;2023-11-19T09:36:05;27.45;;;5.82;;
54263;SDS011;40178;53.042;6.406;2023-11-19T09:38:31;21.10;;;4.60;;
54263;SDS011;40178;53.042;6.406;2023-11-19T09:40:58;26.17;;;4.55;;
54263;SDS011;40178;53.042;6.406;2023-11-19T09:43:24;26.38;;;4.88;;
54263;SDS011;40178;53.042;6.406;2023-11-19T09:45:53;25.63;;;4.90;;
54263;SDS011;40178;53.042;6.406;2023-11-19T09:48:21;16.73;;;4.55;;
54263;SDS011;40178;53.042;6.406;2023-11-19T09:50:49;22.02;;;5.35;;
54263;SDS011;40178;53.042;6.406;2023-11-19T09:53:16;33.33;;;5.75;;
54263;SDS011;40178;53.042;6.406;2023-11-19T09:55:42;18.55;;;5.50;;
54263;SDS011;40178;53.042;6.406;2023-11-19T09:58:08;26.80;;;5.32;;
54263;SDS011;40178;53.042;6.406;2023-11-19T10:00:36;22.95;;;5.45;;
54263;SDS011;40178;53.042;6.406;2023-11-19T10:03:03;19.20;;;5.35;;
54263;SDS011;40178;53.042;6.406;2023-11-19T10:05:30;33.10;;;5.88;;
54263;SDS011;40178;53.042;6.406;2023-11-19T10:07:56;35.80;;;5.65;;
54263;SDS011;40178;53.042;6.406;2023-11-19T10:10:22;25.52;;;4.80;;
54263;SDS011;40178;53.042;6.406;2023-11-19T10:12:50;20.45;;;5.68;;
54263;SDS011;40178;53.042;6.406;2023-11-19T10:15:23;24.33;;;4.57;;
54263;SDS011;40178;53.042;6.406;2023-11-19T10:17:50;22.67;;;4.65;;
54263;SDS011;40178;53.042;6.406;2023-11-19T10:20:16;30.70;;;5.38;;
54263;SDS011;40178;53.042;6.406;2023-11-19T10:22:42;32.08;;;5.18;;
54263;SDS011;40178;53.042;6.406;2023-11-19T10:27:50;19.98;;;4.53;;
54263;SDS011;40178;53.042;6.406;2023-11-19T10:30:37;22.88;;;4.82;;
54263;SDS011;40178;53.042;6.406;2023-11-19T10:33:02;19.55;;;4.63;;
54263;SDS011;40178;53.042;6.406;2023-11-19T10:35:34;24.42;;;5.70;;
54263;SDS011;40178;53.042;6.406;2023-11-19T10:38:23;25.17;;;5.18;;
54263;SDS011;40178;53.042;6.406;2023-11-19T10:40:50;23.75;;;5.32;;
54263;SDS011;40178;53.042;6.406;2023-11-19T10:43:20;24.45;;;4.70;;
54263;SDS011;40178;53.042;6.406;2023-11-19T10:45:47;24.25;;;5.53;;
54263;SDS011;40178;53.042;6.406;2023-11-19T10:48:13;22.65;;;5.20;;
54263;SDS011;40178;53.042;6.406;2023-11-19T10:50:40;39.85;;;5.13;;
54263;SDS011;40178;53.042;6.406;2023-11-19T10:53:07;18.90;;;3.92;;
54263;SDS011;40178;53.042;6.406;2023-11-19T10:55:34;23.60;;;5.45;;
54263;SDS011;40178;53.042;6.406;2023-11-19T10:58:02;24.95;;;4.47;;
54263;SDS011;40178;53.042;6.406;2023-11-19T11:03:16;27.77;;;5.00;;
54263;SDS011;40178;53.042;6.406;2023-11-19T11:05:42;21.23;;;3.75;;
54263;SDS011;40178;53.042;6.406;2023-11-19T11:08:12;23.13;;;4.43;;
54263;SDS011;40178;53.042;6.406;2023-11-19T11:10:52;23.65;;;4.43;;
54263;SDS011;40178;53.042;6.406;2023-11-19T11:13:22;25.83;;;4.70;;
54263;SDS011;40178;53.042;6.406;2023-11-19T11:15:49;22.02;;;4.88;;
54263;SDS011;40178;53.042;6.406;2023-11-19T11:18:16;17.33;;;5.00;;
54263;SDS011;40178;53.042;6.406;2023-11-19T11:20:46;26.67;;;5.88;;
54263;SDS011;40178;53.042;6.406;2023-11-19T11:31:18;24.50;;;4.60;;
54263;SDS011;40178;53.042;6.406;2023-11-19T11:39:33;22.15;;;4.38;;
54263;SDS011;40178;53.042;6.406;2023-11-19T11:50:07;26.05;;;4.53;;
54263;SDS011;40178;53.042;6.406;2023-11-19T11:53:12;23.00;;;5.05;;
54263;SDS011;40178;53.042;6.406;2023-11-19T11:55:26;26.25;;;4.50;;
54263;SDS011;40178;53.042;6.406;2023-11-19T11:58:29;31.90;;;5.22;;
54263;SDS011;40178;53.042;6.406;2023-11-19T12:00:57;26.38;;;4.38;;
54263;SDS011;40178;53.042;6.406;2023-11-19T12:03:26;17.85;;;3.88;;
54263;SDS011;40178;53.042;6.406;2023-11-19T12:05:53;17.40;;;5.18;;
54263;SDS011;40178;53.042;6.406;2023-11-19T12:08:19;16.20;;;3.28;;
54263;SDS011;40178;53.042;6.406;2023-11-19T12:10:50;23.00;;;4.80;;
54263;SDS011;40178;53.042;6.406;2023-11-19T12:13:17;16.55;;;4.15;;
54263;SDS011;40178;53.042;6.406;2023-11-19T12:18:29;20.55;;;4.25;;
54263;SDS011;40178;53.042;6.406;2023-11-19T12:20:56;28.55;;;5.60;;
54263;SDS011;40178;53.042;6.406;2023-11-19T12:23:25;21.83;;;4.63;;
54263;SDS011;40178;53.042;6.406;2023-11-19T12:25:54;33.45;;;9.57;;
54263;SDS011;40178;53.042;6.406;2023-11-19T12:28:20;24.27;;;4.05;;
54263;SDS011;40178;53.042;6.406;2023-11-19T12:30:46;19.10;;;3.65;;
54263;SDS011;40178;53.042;6.406;2023-11-19T12:33:13;22.63;;;5.68;;
54263;SDS011;40178;53.042;6.406;2023-11-19T12:35:43;22.83;;;4.40;;
54263;SDS011;40178;53.042;6.406;2023-11-19T12:38:20;23.40;;;6.40;;
54263;SDS011;40178;53.042;6.406;2023-11-19T12:41:05;16.63;;;3.53;;
54263;SDS011;40178;53.042;6.406;2023-11-19T12:43:32;16.33;;;3.50;;
54263;SDS011;40178;53.042;6.406;2023-11-19T12:45:59;17.70;;;4.68;;
54263;SDS011;40178;53.042;6.406;2023-11-19T12:48:25;21.17;;;4.13;;
54263;SDS011;40178;53.042;6.406;2023-11-19T12:53:25;15.93;;;3.88;;
54263;SDS011;40178;53.042;6.406;2023-11-19T12:55:52;22.55;;;3.72;;
54263;SDS011;40178;53.042;6.406;2023-11-19T12:58:31;21.98;;;3.80;;
54263;SDS011;40178;53.042;6.406;2023-11-19T13:01:04;20.45;;;3.80;;
54263;SDS011;40178;53.042;6.406;2023-11-19T13:03:35;19.88;;;4.07;;
54263;SDS011;40178;53.042;6.406;2023-11-19T13:06:04;24.35;;;4.15;;
54263;SDS011;40178;53.042;6.406;2023-11-19T13:08:38;18.88;;;3.88;;
54263;SDS011;40178;53.042;6.406;2023-11-19T13:11:29;21.27;;;3.53;;
54263;SDS011;40178;53.042;6.406;2023-11-19T13:14:03;19.70;;;3.25;;
54263;SDS011;40178;53.042;6.406;2023-11-19T13:16:30;19.67;;;3.65;;
54263;SDS011;40178;53.042;6.406;2023-11-19T13:18:56;24.10;;;4.22;;
54263;SDS011;40178;53.042;6.406;2023-11-19T13:21:22;21.38;;;4.55;;
54263;SDS011;40178;53.042;6.406;2023-11-19T13:23:48;18.92;;;3.95;;
54263;SDS011;40178;53.042;6.406;2023-11-19T13:26:15;20.15;;;3.47;;
54263;SDS011;40178;53.042;6.406;2023-11-19T13:28:40;18.42;;;3.35;;
54263;SDS011;40178;53.042;6.406;2023-11-19T13:31:06;18.52;;;3.58;;
54263;SDS011;40178;53.042;6.406;2023-11-19T13:33:32;19.60;;;3.20;;
54263;SDS011;40178;53.042;6.406;2023-11-19T13:35:59;16.05;;;3.95;;
54263;SDS011;40178;53.042;6.406;2023-11-19T13:38:30;17.17;;;3.47;;
54263;SDS011;40178;53.042;6.406;2023-11-19T13:41:00;17.80;;;3.30;;
54263;SDS011;40178;53.042;6.406;2023-11-19T13:43:26;14.63;;;2.97;;
54263;SDS011;40178;53.042;6.406;2023-11-19T13:45:53;19.30;;;3.60;;
54263;SDS011;40178;53.042;6.406;2023-11-19T13:48:19;18.42;;;3.60;;
54263;SDS011;40178;53.042;6.406;2023-11-19T13:50:45;25.00;;;4.03;;
54263;SDS011;40178;53.042;6.406;2023-11-19T13:53:11;15.95;;;3.35;;
54263;SDS011;40178;53.042;6.406;2023-11-19T13:55:37;18.05;;;3.63;;
54263;SDS011;40178;53.042;6.406;2023-11-19T13:58:02;17.35;;;4.70;;
54263;SDS011;40178;53.042;6.406;2023-11-19T14:00:28;15.65;;;3.88;;
54263;SDS011;40178;53.042;6.406;2023-11-19T14:02:54;22.75;;;4.20;;
54263;SDS011;40178;53.042;6.406;2023-11-19T14:05:19;17.00;;;3.67;;
54263;SDS011;40178;53.042;6.406;2023-11-19T14:07:45;19.63;;;3.78;;
54263;SDS011;40178;53.042;6.406;2023-11-19T14:10:14;21.27;;;3.60;;
54263;SDS011;40178;53.042;6.406;2023-11-19T14:12:40;16.40;;;3.47;;
54263;SDS011;40178;53.042;6.406;2023-11-19T14:15:06;20.10;;;4.75;;
54263;SDS011;40178;53.042;6.406;2023-11-19T14:17:34;17.75;;;4.38;;
54263;SDS011;40178;53.042;6.406;2023-11-19T14:20:03;17.27;;;3.80;;
54263;SDS011;40178;53.042;6.406;2023-11-19T14:22:41;18.02;;;3.70;;
54263;SDS011;40178;53.042;6.406;2023-11-19T14:25:08;14.70;;;3.50;;
54263;SDS011;40178;53.042;6.406;2023-11-19T14:27:38;17.88;;;3.90;;
54263;SDS011;40178;53.042;6.406;2023-11-19T14:30:11;15.20;;;3.50;;
54263;SDS011;40178;53.042;6.406;2023-11-19T14:32:39;19.65;;;4.05;;
54263;SDS011;40178;53.042;6.406;2023-11-19T14:35:05;21.65;;;4.07;;
54263;SDS011;40178;53.042;6.406;2023-11-19T14:37:32;17.05;;;4.20;;
54263;SDS011;40178;53.042;6.406;2023-11-19T14:39:58;13.95;;;3.50;;
54263;SDS011;40178;53.042;6.406;2023-11-19T14:42:24;20.38;;;4.35;;
54263;SDS011;40178;53.042;6.406;2023-11-19T14:44:53;20.00;;;4.30;;
54263;SDS011;40178;53.042;6.406;2023-11-19T14:47:22;21.33;;;4.22;;
54263;SDS011;40178;53.042;6.406;2023-11-19T14:49:48;17.85;;;3.33;;
54263;SDS011;40178;53.042;6.406;2023-11-19T14:52:14;17.65;;;3.95;;
54263;SDS011;40178;53.042;6.406;2023-11-19T14:54:40;19.60;;;4.18;;
54263;SDS011;40178;53.042;6.406;2023-11-19T14:57:06;22.95;;;5.72;;
54263;SDS011;40178;53.042;6.406;2023-11-19T14:59:33;18.80;;;4.72;;
54263;SDS011;40178;53.042;6.406;2023-11-19T15:01:59;20.85;;;5.05;;
54263;SDS011;40178;53.042;6.406;2023-11-19T15:04:26;17.40;;;3.63;;
54263;SDS011;40178;53.042;6.406;2023-11-19T15:06:52;14.77;;;3.75;;
54263;SDS011;40178;53.042;6.406;2023-11-19T15:09:17;20.30;;;3.72;;